TOURFACTS.DK  
Stats and Facts from Tour de France.

Tour de France 2019 starts in 348 days
  Riders   Stages   Teams   Summits   Yearly  


 
Search by year

After 2018 - Stage 14:
 15000 starters.
  5163 different riders.
  639 teams.
  2246 stages.
  456 restdays.
  441957.60 km.
  5678 abandonnees.


Top 3
GC
Christopher Froome86:20:55
Rigoberto Urán86:21:49
Romain Bardet86:23:15
Climb
Warren Barguil169 pt.
Primoz Roglic80 pt.
Thomas De Gendt64 pt.
Sprint
Michael Matthews359 pt.
André Greipel234 pt.
Edvald Boasson Hagen220 pt.
Youth
Simon Yates86:27:09
Louis Meintjes86:29:15
Emanuel Buchmann86:54:16
Facts from Tour de France 1933
  |   Stages.  |   Stage winners.  |   Days in yellow  |   Average speed.  |   Route.  |   Teams.  |   All riders.  |   Rookies.  |  

  |   Withdrawls.  |   GC.  |   Polka  |   Green  |   White  |   Summits. (In tour)  |   Miscellaneous.  |  

Stage 3 on June 29th. 1933
         Owning:    Maurice Archambaud    
Pick a stage:  1 2 3 4 5 6 7 8 9 10 11 12 13 14 15 16 17 18 19 20 21 22 23
From: Charleville    To: MetzDist:192.00 km.

Average speed for all riders in stage:  40,986 km./hr.
    Place:Name:Team:Time:Km/h:
BELAlfons SchepersBELBelgium04:37:24  +  00:00:00=41,528 
BELGeorges RonsseBELBelgium04:37:24  +  00:00:00=41,528 
GERHermann BuseDEUGermany-Austria04:37:24  +  00:00:00=41,528 
4 FRAGaspard RinaldiTouristes Routiers04:37:24  +  00:00:00=41,528 
5 ITAFrancesco CamussoITAItaly04:37:24  +  00:00:00=41,528 
6 BELLouis HardiquestTouristes Routiers04:37:24  +  00:00:00=41,528 
7 FRARoger LapebieFRAFrance04:39:08  +  00:01:44=41,271 
8 FRAFernand CornezTouristes Routiers04:39:08  +  00:01:44=41,271 
9 AUTMax BullaDEUGermany-Austria04:39:08  +  00:01:44=41,271 
10 BELGaston RebryBELBelgium04:39:08  +  00:01:44=41,271 
11 FRARené Le GrevesFRAFrance04:39:08  +  00:01:44=41,271 
12 FRALéon Le CalvezFRAFrance04:39:08  +  00:01:44=41,271 
13 BELJean AertsBELBelgium04:39:08  +  00:01:44=41,271 
14 BELGeorges LemaireBELBelgium04:39:08  +  00:01:44=41,271 
15 BELJean WautersBELBelgium04:39:08  +  00:01:44=41,271 
16 BELJoseph MoerenhoutBELBelgium04:39:08  +  00:01:44=41,271 
17 ITALearco GuerraITAItaly04:39:08  +  00:01:44=41,271 
18 ITAFabio BattesiniITAItaly04:39:08  +  00:01:44=41,271 
19 ITALuigi GiacobbeITAItaly04:39:08  +  00:01:44=41,271 
20 SUIAlfred BüchiCHESwitzerland04:39:08  +  00:01:44=41,271 
21 SUIAlfred BulaCHESwitzerland04:39:08  +  00:01:44=41,271 
22 GERKurt StöpelDEUGermany-Austria04:39:08  +  00:01:44=41,271 
23 GEROskar ThierbachDEUGermany-Austria04:39:08  +  00:01:44=41,271 
24 GERLudwig GeyerDEUGermany-Austria04:39:08  +  00:01:44=41,271 
25 FRAMaurice ArchambaudFRAFrance04:39:08  +  00:01:44=41,271 
26 FRAAntonin MagneFRAFrance04:39:08  +  00:01:44=41,271 
27 BELKamiel De GraeveTouristes Routiers04:39:08  +  00:01:44=41,271 
28 BELEmile DecroixTouristes Routiers04:39:08  +  00:01:44=41,271 
29 FRALéon LouyetTouristes Routiers04:39:08  +  00:01:44=41,271 
30 ITARenato ScorticatiTouristes Routiers04:39:08  +  00:01:44=41,271 
31 ITAGiuseppe MartanoTouristes Routiers04:39:08  +  00:01:44=41,271 
32 FRALéon LevelTouristes Routiers04:39:08  +  00:01:44=41,271 
33 FRAAdrien ButtafocchiTouristes Routiers04:39:08  +  00:01:44=41,271 
34 FRAJean DriancourtTouristes Routiers04:39:08  +  00:01:44=41,271 
35 FRAEmile IgnatTouristes Routiers04:39:08  +  00:01:44=41,271 
36 FRAErnest NeuhardTouristes Routiers04:39:08  +  00:01:44=41,271 
37 FRAEugene Le GoffTouristes Routiers04:39:08  +  00:01:44=41,271 
38 FRAGeorges SpeicherFRAFrance04:39:08  +  00:01:44=41,271 
39 FRAAndré GaillotTouristes Routiers04:39:51  +  00:02:27=41,165 
40 FRAPierre PastorelliTouristes Routiers04:40:08  +  00:02:44=41,123 
41 BELAntoine DignefTouristes Routiers04:40:08  +  00:02:44=41,123 
42 ITADomenico PiemontesiITAItaly04:40:17  +  00:02:53=41,101 
43 ITARafaële Di PacoITAItaly04:40:17  +  00:02:53=41,101 
44 ITAVasco BergamaschiITAItaly04:40:17  +  00:02:53=41,101 
45 FRADécimo BettiniTouristes Routiers04:40:17  +  00:02:53=41,101 
46 SUIRoger PipozCHESwitzerland04:40:17  +  00:02:53=41,101 
47 ITALuigi LuisoniCHESwitzerland04:40:17  +  00:02:53=41,101 
48 FRAAuguste MoncieroTouristes Routiers04:40:37  +  00:03:13=41,052 
49 FRAPierre-Marie CloarecTouristes Routiers04:42:13  +  00:04:49=40,820 
50 FRAFernand FayolleTouristes Routiers04:42:13  +  00:04:49=40,820 
51 FRAAndré LeducqFRAFrance04:42:13  +  00:04:49=40,820 
52 BELGustaaf DeloorBELBelgium04:42:13  +  00:04:49=40,820 
53 GERKarl AltenburgerDEUGermany-Austria04:42:13  +  00:04:49=40,820 
54 ITAAntonio FolcoTouristes Routiers04:42:44  +  00:05:20=40,745 
55 BELJulien VervaeckeTouristes Routiers04:43:01  +  00:05:37=40,704 
56 FRALouis PeglionTouristes Routiers04:43:50  +  00:06:26=40,587 
57 SUIWalter BlattmannCHESwitzerland04:43:50  +  00:06:26=40,587 
58 GERWilly KutschbachDEUGermany-Austria04:43:50  +  00:06:26=40,587 
59 ESPVicente TruebaTouristes Routiers04:43:50  +  00:06:26=40,587 
60 SUIAlbert BüchiCHESwitzerland04:44:38  +  00:07:14=40,473 
61 BELLeopold RoosemontTouristes Routiers04:44:38  +  00:07:14=40,473 
62 ITAAllegro GrandiITAItaly04:45:05  +  00:07:41=40,409 
63 ITAGiovanni FirpoTouristes Routiers04:47:13  +  00:09:49=40,109 
64 FRARobert BrugéreTouristes Routiers04:47:13  +  00:09:49=40,109 
65 FRAFrancois HaasTouristes Routiers04:50:29  +  00:13:05=39,658 
66 SUIGeorges AntenenCHESwitzerland04:51:52  +  00:14:28=39,470 
67 AUTKarl ThallingerTouristes Routiers04:54:58  +  00:17:34=39,055 
68 FRARené BernardTouristes Routiers04:55:30  +  00:18:06=38,985 

Withdrawls: 1
 
Rider
Team
Reason
33  FRACharles PelissierFRAFranceDid not finish

Todays birthdays.

1877  Antoine Perrichon
1878  Auguste Berthault
1911  Théo Herckenrath
1924  Carlo Lafranchi
1931  Armand Di Caro
1937  Jean-Claude Lebaube
1951  Giovanni Battaglin
1961  Pascal Jules
1962  Jean-Claude Leclercq
1976  Janek Tombak
1978  Francisco Pérez
1983  Dries Devenyns




Visits: